Latest Weather Observations for Warrnambool

IDV60801

Issued at 9:02 pm EDT Saturday 31 January 2015 (issued every 30 minutes, with the page automatically refreshed every 10 minutes)

About weather observations | Map of weather stations | Latest weather observations for VIC | Other Formats
Station Details ID: 090186 Name: WARRNAMBOOL AIRPORT NDB Lat: -38.29 Lon: 142.45 Height: 70.8 m
Data from the previous 72 hours. | See also: Recent months at Warrnambool
Date/Time
EDT
Temp
°C
App
Temp
°C
Dew
Point
Rel
Hum
%
Delta-T
°C
Wind Press
QNH
hPa
Press
MSL
hPa
Rain
since 9 am
mm
Dir
 
Spd
km/h
Gust
km/h
Spd
kts
Gust
kts
31/08:30pm 14.7 9.8 8.6 67 3.1 S 24 30 13 16 1015.7 1015.5 0.2
31/08:00pm 14.9 8.6 9.7 71 2.7 S 33 41 18 22 1015.4 1015.2 0.2
31/07:30pm 15.1 8.9 9.9 71 2.7 SSW 33 43 18 23 1015.3 1015.1 0.2
31/07:00pm 15.4 8.5 10.2 71 2.7 S 37 46 20 25 1015.1 1014.9 0.2
31/06:30pm 15.6 9.3 11.0 74 2.5 SSW 35 46 19 25 1014.9 1014.7 0.2
31/05:30pm 15.2 9.2 10.8 75 2.3 S 33 44 18 24 1015.2 1015.0 0.2
31/05:00pm 15.9 9.6 11.1 73 2.6 SSW 35 44 19 24 1015.3 1015.1 0.2
31/04:30pm 16.3 9.8 11.7 74 2.5 SSW 37 46 20 25 1015.4 1015.2 0.2
31/04:00pm 15.1 10.4 13.1 88 1.1 SSW 30 39 16 21 1015.4 1015.2 0.2
31/03:30pm 16.8 9.9 10.4 66 3.4 SSW 37 46 20 25 1015.4 1015.2 0.2
31/03:00pm 17.3 11.2 11.6 69 3.1 S 35 44 19 24 1015.2 1015.0 0.2
31/02:30pm 16.7 11.0 11.2 70 3.0 S 32 43 17 23 1015.3 1015.1 0.2
31/02:00pm 15.5 11.6 12.1 80 1.9 S 24 35 13 19 1015.4 1015.2 0.2
31/01:30pm 14.5 9.3 12.7 89 1.0 S 32 39 17 21 1015.6 1015.4 0.2
31/01:00pm 14.4 11.6 13.1 92 0.7 S 20 33 11 18 1015.6 1015.4 0.2
31/12:30pm 14.6 10.9 12.6 88 1.1 S 24 32 13 17 1015.8 1015.6 0.0
31/12:00pm 14.3 10.4 12.2 87 1.1 SSE 24 35 13 19 1015.6 1015.4 0.0
31/11:30am 15.0 12.1 12.3 84 1.5 S 19 28 10 15 1015.4 1015.2 0.0
31/11:00am 15.7 10.7 11.1 74 2.5 S 28 35 15 19 1015.4 1015.2 0.0
31/10:30am 15.8 10.2 11.6 76 2.3 S 32 43 17 23 1015.4 1015.2 0.0
31/10:00am 16.6 10.8 9.5 63 3.7 SSE 30 41 16 22 1015.1 1014.9 0.0
31/09:30am 16.1 11.2 9.8 66 3.3 SSE 26 35 14 19 1014.9 1014.7 0.0
31/08:30am 15.2 10.7 10.2 72 2.6 SSE 24 32 13 17 1014.6 1014.4 0.0
31/08:00am 15.0 9.9 9.1 68 3.0 SSE 26 39 14 21 1014.3 1014.1 0.0
31/07:30am 14.7 9.7 9.7 72 2.6 S 26 35 14 19 1014.3 1014.1 0.0
31/07:00am 14.6 9.8 10.2 75 2.3 SSE 26 39 14 21 1014.2 1014.0 0.0
31/06:30am 14.4 8.9 10.6 78 2.0 S 30 39 16 21 1014.4 1014.2 0.0
31/05:30am 14.9 9.7 10.1 73 2.5 S 28 39 15 21 1014.1 1013.9 0.0
31/05:00am 14.6 9.7 11.2 80 1.8 S 28 39 15 21 1013.9 1013.7 0.0
31/04:30am 13.9 11.3 11.9 88 1.1 SSE 17 24 9 13 1013.8 1013.6 0.0
31/04:00am 14.8 9.2 11.4 80 1.8 S 32 43 17 23 1013.7 1013.5 0.0
31/03:30am 14.7 10.7 11.7 82 1.6 S 24 32 13 17 1014.0 1013.8 0.0
31/03:00am 14.4 10.1 11.9 85 1.4 S 26 33 14 18 1014.2 1014.0 0.0
31/02:30am 14.5 9.0 10.5 77 2.1 S 30 37 16 20 1014.4 1014.2 0.0
31/02:00am 14.8 9.8 11.0 78 2.0 S 28 35 15 19 1014.5 1014.3 0.0
31/01:30am 14.2 8.6 11.4 83 1.5 S 32 39 17 21 1014.7 1014.5 0.0
31/01:00am 14.7 9.8 11.3 80 1.8 S 28 33 15 18 1015.0 1014.8 0.0
31/12:30am 14.9 9.6 11.3 79 1.9 S 30 39 16 21 1015.2 1015.0 0.0
 
Date/Time
EDT
Temp
°C
App
Temp
°C
Dew
Point
Rel
Hum
%
Delta-T
°C
Wind Press
QNH
hPa
Press
MSL
hPa
Rain
since 9 am
mm
Dir
 
Spd
km/h
Gust
km/h
Spd
kts
Gust
kts
30/11:30pm 15.1 11.1 11.7 80 1.8 S 24 35 13 19 1015.5 1015.3 0.0
30/11:00pm 15.2 10.2 10.8 75 2.3 S 28 37 15 20 1015.6 1015.4 0.0
30/10:30pm 15.1 9.9 10.1 72 2.6 S 28 35 15 19 1015.8 1015.6 0.0
30/10:00pm 15.5 9.6 10.5 72 2.6 S 32 41 17 22 1015.9 1015.7 0.0
30/09:30pm 15.0 11.8 11.8 81 1.7 SSE 20 30 11 16 1015.8 1015.6 0.0
30/09:00pm 15.0 10.1 11.2 78 2.0 SSE 28 33 15 18 1015.7 1015.5 0.0
30/08:30pm 15.2 11.0 11.2 77 2.1 S 24 32 13 17 1015.5 1015.3 0.0
30/08:00pm 15.8 11.0 10.3 70 2.9 SSE 26 35 14 19 1015.5 1015.3 0.0
30/07:30pm 16.5 11.3 10.1 66 3.4 SSE 28 39 15 21 1015.3 1015.1 0.0
30/07:00pm 16.7 11.1 10.1 65 3.5 S 30 39 16 21 1015.4 1015.2 0.0
30/06:30pm 16.4 10.3 10.5 68 3.1 S 33 39 18 21 1015.3 1015.1 0.0
30/06:00pm 16.7 10.8 11.2 70 3.0 S 33 41 18 22 1015.4 1015.2 0.0
30/05:30pm 17.2 10.8 10.6 65 3.5 S 35 44 19 24 1015.7 1015.5 0.0
30/05:00pm 17.4 11.6 10.8 65 3.5 S 32 43 17 23 1015.7 1015.5 0.0
30/04:30pm 18.6 13.3 11.2 62 4.0 S 30 37 16 20 1016.0 1015.8 0.0
30/04:00pm 17.8 12.6 10.2 61 4.0 S 28 35 15 19 1016.1 1015.9 0.0
30/03:30pm 18.5 14.1 10.3 59 4.4 S 24 33 13 18 1016.4 1016.2 0.0
30/03:15pm 19.3 14.1 10.3 56 4.9 SSW 28 48 15 26 1016.6 1016.4 0.0
30/03:00pm 18.1 13.1 9.7 58 4.4 SSW 26 35 14 19 1016.8 1016.6 0.0
30/02:30pm 18.1 12.9 10.2 60 4.2 SSW 28 37 15 20 1017.2 1017.0 0.0
30/02:00pm 19.7 14.7 10.9 57 4.8 S 28 39 15 21 1017.3 1017.1 0.0
30/01:30pm 19.2 14.1 10.7 58 4.6 SSW 28 41 15 22 1017.6 1017.4 0.0
30/01:00pm 19.1 14.0 10.6 58 4.6 S 28 37 15 20 1017.8 1017.6 0.0
30/12:30pm 19.2 14.6 11.0 59 4.5 S 26 35 14 19 1017.8 1017.6 0.0
30/12:00pm 17.9 13.6 10.8 63 3.8 SSW 24 35 13 19 1018.1 1017.9 0.0
30/11:30am 18.0 13.6 9.1 56 4.7 SSW 22 33 12 18 1018.4 1018.2 0.0
30/11:00am 17.2 12.9 10.6 65 3.5 SSW 24 30 13 16 1018.5 1018.3 0.0
30/10:30am 16.9 12.5 10.3 65 3.5 S 24 33 13 18 1018.5 1018.3 0.0
30/10:00am 16.4 12.4 10.5 68 3.1 S 22 26 12 14 1018.7 1018.5 0.0
30/09:30am 16.5 12.3 9.9 65 3.5 SSW 22 30 12 16 1018.6 1018.4 0.0
30/09:00am 17.4 15.5 11.9 70 3.0 S 13 20 7 11 1018.6 1018.4 0.0
30/08:30am 14.5 12.3 10.9 79 1.9 S 13 17 7 9 1018.8 1018.6 0.0
30/08:00am 11.3 11.7 11.1 99 0.1 CALM 0 0 0 0 1018.6 1018.4 0.0
30/07:30am 8.7 8.0 8.6 99 0.0 WSW 2 6 1 3 1018.3 1018.1 0.0
30/07:00am 7.0 6.3 6.9 99 0.0 CALM 0 0 0 0 1018.1 1017.9 0.0
30/06:30am 6.7 5.9 6.4 98 0.1 CALM 0 0 0 0 1017.9 1017.7 0.0
30/06:00am 7.4 6.6 6.5 94 0.4 CALM 0 0 0 0 1017.8 1017.6 0.0
30/05:30am 8.6 7.3 7.8 95 0.4 ESE 4 6 2 3 1017.5 1017.3 0.0
30/05:00am 9.4 7.8 8.0 91 0.7 ESE 6 9 3 5 1017.6 1017.4 0.0
30/04:30am 9.5 8.0 8.4 93 0.5 ESE 6 7 3 4 1017.9 1017.7 0.0
30/04:00am 9.6 8.1 8.4 92 0.6 SE 6 7 3 4 1018.0 1017.8 0.0
30/03:30am 9.6 7.6 8.5 93 0.5 SSE 9 11 5 6 1018.3 1018.1 0.0
30/03:00am 10.4 8.9 8.5 88 0.9 SE 6 9 3 5 1018.4 1018.2 0.0
30/02:30am 10.9 8.9 8.8 87 1.0 SE 9 11 5 6 1018.8 1018.6 0.0
30/02:00am 11.0 9.1 8.9 87 1.0 SE 9 11 5 6 1019.1 1018.9 0.0
30/01:30am 11.1 9.2 9.0 87 1.0 SE 9 13 5 7 1019.3 1019.1 0.0
30/01:00am 11.4 9.6 9.5 88 1.0 SE 9 11 5 6 1019.6 1019.4 0.0
30/12:30am 11.2 9.3 9.1 87 1.1 SE 9 11 5 6 1019.7 1019.5 0.0
30/12:00am 11.6 9.7 9.2 85 1.2 SE 9 13 5 7 1019.8 1019.6 0.0
 
Date/Time
EDT
Temp
°C
App
Temp
°C
Dew
Point
Rel
Hum
%
Delta-T
°C
Wind Press
QNH
hPa
Press
MSL
hPa
Rain
since 9 am
mm
Dir
 
Spd
km/h
Gust
km/h
Spd
kts
Gust
kts
29/11:30pm 12.0 9.7 9.0 82 1.5 SE 11 13 6 7 1020.0 1019.8 0.0
29/11:00pm 12.8 10.1 9.1 78 1.9 SE 13 17 7 9 1020.2 1020.1 0.0
29/10:30pm 13.8 10.7 9.0 73 2.4 SE 15 20 8 11 1020.2 1020.1 0.0
29/10:00pm 14.2 10.2 9.2 72 2.5 SE 20 28 11 15 1020.1 1019.9 0.0
29/09:30pm 14.5 10.2 9.3 71 2.7 SE 22 32 12 17 1020.0 1019.8 0.0
29/09:00pm 14.5 10.1 9.1 70 2.8 SSE 22 32 12 17 1019.8 1019.6 0.0
29/08:30pm 15.5 10.5 9.4 67 3.2 SSE 26 35 14 19 1019.8 1019.6 0.0
29/08:00pm 16.2 9.9 8.9 62 3.7 SSE 32 43 17 23 1019.6 1019.4 0.0
29/07:30pm 17.1 11.3 9.5 61 4.0 SSE 30 41 16 22 1019.5 1019.3 0.0
29/07:00pm 17.6 10.8 9.2 58 4.4 SSE 35 46 19 25 1019.4 1019.2 0.0
29/06:30pm 18.3 11.0 8.8 54 4.9 SSE 37 48 20 26 1019.2 1019.0 0.0
29/06:00pm 18.4 11.1 8.7 53 5.0 SSE 37 48 20 26 1019.3 1019.1 0.0
29/05:30pm 18.8 11.4 8.5 51 5.4 SSE 37 48 20 26 1019.5 1019.3 0.0
29/05:00pm 20.0 12.7 8.7 48 5.9 SSE 37 48 20 26 1019.7 1019.5 0.0
29/04:30pm 20.0 12.4 7.7 45 6.3 SSE 37 52 20 28 1019.8 1019.6 0.0
29/04:00pm 20.2 13.1 8.2 46 6.2 SSE 35 48 19 26 1020.2 1020.1 0.0
29/03:30pm 20.3 12.8 8.0 45 6.4 SSE 37 46 20 25 1020.4 1020.3 0.0
29/03:00pm 20.4 13.1 8.7 47 6.1 SSE 37 46 20 25 1020.7 1020.6 0.0
29/02:30pm 20.7 12.7 7.3 42 6.9 SSE 39 50 21 27 1020.7 1020.6 0.0
29/02:00pm 20.5 12.8 8.5 46 6.3 SSE 39 54 21 29 1020.7 1020.6 0.0
29/01:30pm 20.8 14.5 9.7 49 6.0 SSE 33 44 18 24 1021.0 1020.9 0.0
29/01:00pm 20.1 14.7 10.8 55 5.1 SSE 30 37 16 20 1021.3 1021.2 0.0
29/12:30pm 20.7 17.3 12.4 59 4.7 SSE 22 32 12 17 1021.5 1021.4 0.0
29/12:00pm 18.4 14.6 11.0 62 4.0 SSE 22 32 12 17 1021.6 1021.5 0.0
29/11:30am 18.9 15.8 10.2 57 4.7 SSE 17 26 9 14 1021.8 1021.7 0.0
29/11:00am 18.5 15.3 9.8 57 4.6 SSE 17 24 9 13 1021.8 1021.7 0.0
29/10:30am 17.5 14.5 12.6 73 2.7 SSE 20 26 11 14 1022.0 1021.9 0.0
29/10:00am 18.6 15.8 11.2 62 4.0 SE 17 26 9 14 1022.0 1021.9 0.0
29/09:30am 17.4 14.8 11.9 70 3.0 SE 17 30 9 16 1022.1 1022.0 0.0
29/09:00am 16.6 14.2 12.6 77 2.2 SE 17 24 9 13 1022.1 1022.0 0.0
29/08:30am 15.6 14.1 13.1 85 1.4 SE 13 17 7 9 1021.9 1021.8 0.0
29/08:00am 14.1 13.4 12.0 87 1.1 SE 7 11 4 6 1021.6 1021.5 0.0
29/07:30am 12.8 12.1 11.4 91 0.7 SE 6 9 3 5 1021.3 1021.2 0.0
29/07:00am 11.8 10.8 11.0 95 0.4 SE 7 11 4 6 1021.1 1021.0 0.0
29/06:30am 11.2 9.9 10.1 93 0.6 SE 7 9 4 5 1020.8 1020.7 0.0
29/06:00am 11.7 10.2 10.4 92 0.7 SE 9 13 5 7 1020.6 1020.5 0.0
29/05:30am 11.5 9.9 10.2 92 0.7 SE 9 13 5 7 1020.4 1020.3 0.0
29/05:00am 11.6 10.4 10.2 91 0.7 SE 7 9 4 5 1020.5 1020.4 0.0
29/04:30am 11.7 10.1 10.3 91 0.7 SE 9 13 5 7 1020.4 1020.3 0.0
29/04:00am 11.8 9.9 10.4 91 0.7 SE 11 15 6 8 1020.4 1020.3 0.0
29/03:30am 11.1 9.0 9.7 91 0.7 SE 11 15 6 8 1020.4 1020.3 0.0
29/03:00am 10.7 8.5 9.3 91 0.7 SE 11 13 6 7 1020.5 1020.4 0.0
29/02:30am 10.7 9.2 9.0 89 0.8 SE 7 9 4 5 1020.7 1020.6 0.0
29/02:00am 11.6 10.2 9.7 88 1.0 SE 7 11 4 6 1021.0 1020.9 0.0
29/01:30am 11.6 10.3 9.3 86 1.2 SE 6 11 3 6 1021.3 1021.2 0.0
29/01:00am 12.2 11.0 9.6 84 1.3 ESE 6 9 3 5 1021.3 1021.2 0.0
29/12:30am 13.0 10.9 9.8 81 1.6 SE 11 19 6 10 1021.4 1021.3 0.0
29/12:00am 13.6 10.7 9.8 78 2.0 SE 15 20 8 11 1021.3 1021.2 0.0
 
Date/Time
EDT
Temp
°C
App
Temp
°C
Dew
Point
Rel
Hum
%
Delta-T
°C
Wind Press
QNH
hPa
Press
MSL
hPa
Rain
since 9 am
mm
Dir
 
Spd
km/h
Gust
km/h
Spd
kts
Gust
kts
28/11:30pm 13.9 11.0 9.7 76 2.2 SE 15 20 8 11 1021.6 1021.5 0.0
28/11:00pm 14.0 11.1 9.8 76 2.2 SE 15 20 8 11 1021.7 1021.6 0.0
28/10:30pm 14.7 10.8 9.5 71 2.7 SE 20 28 11 15 1021.6 1021.5 0.0
28/10:00pm 15.1 10.7 8.8 66 3.2 SE 22 30 12 16 1021.3 1021.2 0.0
28/09:30pm 15.3 10.9 8.8 65 3.3 SE 22 32 12 17 1021.0 1020.9 0.0

Other Formats:

Comma delimited format used in spreadsheet applications
http://www.bom.gov.au/fwo/IDV60801/IDV60801.94837.axf

JavaScript Object Notation format (JSON) in row-major order
http://www.bom.gov.au/fwo/IDV60801/IDV60801.94837.json